Time;durP1;ratioP1;P1;durP2;ratioP2;P2;SDS_P1;SDS_P2;PMS_P1;PMS_P2;Temp;Humidity;BMP_temperature;BMP_pressure;BME280_temperature;BME280_humidity;BME280_pressure;Samples;Min_cycle;Max_cycle;Signal;HPM_P1;HPM_P2
2021/08/19 00:00:57;;;;;;;10.77;7.07;;;;;;;17.25;77.36;99489.59;5090189;27;20093;-70
2021/08/19 00:03:22;;;;;;;14.27;8.73;;;;;;;17.27;77.50;99495.66;5089935;27;20699;-70
2021/08/19 00:05:48;;;;;;;15.60;7.50;;;;;;;17.26;77.24;99492.13;5089405;27;20024;-69
2021/08/19 00:08:13;;;;;;;12.60;7.43;;;;;;;17.28;77.14;99494.69;5089004;27;20036;-70
2021/08/19 00:10:39;;;;;;;10.35;7.32;;;;;;;17.29;76.93;99494.53;5089129;27;20522;-70
2021/08/19 00:13:04;;;;;;;16.45;7.22;;;;;;;17.33;76.90;99484.50;5090763;27;20036;-70
2021/08/19 00:15:30;;;;;;;12.15;8.63;;;;;;;17.32;76.84;99488.13;5090533;27;20288;-71
2021/08/19 00:17:55;;;;;;;13.75;7.55;;;;;;;17.29;76.78;99481.22;5089281;27;20205;-71
2021/08/19 00:20:21;;;;;;;13.52;8.60;;;;;;;17.31;76.54;99481.94;5088530;27;20039;-71
2021/08/19 00:22:46;;;;;;;11.63;7.63;;;;;;;17.31;76.94;99481.94;5087900;27;20060;-70
2021/08/19 00:25:11;;;;;;;11.43;8.02;;;;;;;17.30;76.75;99482.94;5088208;27;20468;-70
2021/08/19 00:27:37;;;;;;;12.57;7.95;;;;;;;17.32;76.64;99480.13;5088087;27;20469;-70
2021/08/19 00:30:03;;;;;;;10.07;7.10;;;;;;;17.31;76.96;99476.63;5087055;27;20368;-70
2021/08/19 00:32:29;;;;;;;12.60;6.50;;;;;;;17.31;76.66;99484.63;5086532;27;20565;-70
2021/08/19 00:34:54;;;;;;;13.85;8.70;;;;;;;17.30;76.92;99482.94;5087622;27;20032;-70
2021/08/19 00:37:19;;;;;;;11.00;6.63;;;;;;;17.29;76.78;99480.38;5087933;27;20043;-71
2021/08/19 00:39:45;;;;;;;11.38;7.30;;;;;;;17.29;76.71;99478.56;5088993;27;20032;-70
2021/08/19 00:42:12;;;;;;;9.38;6.75;;;;;;;17.32;76.88;99470.31;5089792;27;20475;-70
2021/08/19 00:44:47;;;;;;;10.20;7.03;;;;;;;17.33;77.05;99472.00;5089712;27;20056;-70
2021/08/19 00:47:13;;;;;;;12.35;8.95;;;;;;;17.30;76.70;99472.28;5085950;27;20040;-71
2021/08/19 00:49:43;;;;;;;9.70;6.38;;;;;;;17.30;76.63;99463.41;5088966;27;20039;-71
2021/08/19 00:52:10;;;;;;;9.32;6.43;;;;;;;17.29;76.66;99480.38;5089163;27;20046;-71
2021/08/19 00:54:37;;;;;;;12.02;7.60;;;;;;;17.29;77.01;99464.41;5087840;27;20609;-71
2021/08/19 00:57:04;;;;;;;11.02;6.72;;;;;;;17.27;77.15;99464.50;5088093;27;20086;-70
2021/08/19 00:59:31;;;;;;;10.15;7.75;;;;;;;17.28;76.82;99468.03;5089010;27;20492;-69
2021/08/19 01:01:58;;;;;;;9.60;6.60;;;;;;;17.26;76.83;99465.50;5063281;27;20040;-70
2021/08/19 01:04:23;;;;;;;9.30;6.68;;;;;;;17.27;77.09;99459.19;5085691;27;20043;-70
2021/08/19 01:06:49;;;;;;;12.88;7.18;;;;;;;17.28;76.75;99460.06;5088204;27;20024;-70
2021/08/19 01:09:16;;;;;;;10.65;7.72;;;;;;;17.27;76.97;99464.50;5088787;27;20032;-70
2021/08/19 01:11:43;;;;;;;14.13;8.20;;;;;;;17.24;77.20;99456.78;5087422;27;20036;-70
2021/08/19 01:14:10;;;;;;;12.13;6.68;;;;;;;17.24;77.04;99454.13;5070609;27;20041;-70
2021/08/19 01:16:35;;;;;;;12.77;8.32;;;;;;;17.22;76.97;99460.53;5088562;27;20063;-70
2021/08/19 01:19:01;;;;;;;8.63;7.75;;;;;;;17.22;77.08;99453.38;5089153;27;20052;-70
2021/08/19 01:21:27;;;;;;;12.40;7.53;;;;;;;17.24;76.98;99454.13;5088836;27;20522;-70
2021/08/19 01:23:52;;;;;;;13.43;8.02;;;;;;;17.23;76.89;99455.09;5089101;27;20028;-70
2021/08/19 01:26:20;;;;;;;10.02;7.72;;;;;;;17.26;76.94;99454.84;5088886;27;20039;-70
2021/08/19 01:28:47;;;;;;;13.95;6.80;;;;;;;17.27;76.77;99453.00;5088668;27;20064;-70
2021/08/19 01:31:19;;;;;;;13.07;7.05;;;;;;;17.28;76.55;99454.72;5088802;27;20579;-70
2021/08/19 01:33:46;;;;;;;12.30;7.20;;;;;;;17.26;76.92;99454.84;5088757;27;20088;-70
2021/08/19 01:36:13;;;;;;;12.02;7.00;;;;;;;17.28;76.67;99442.25;5088574;27;20055;-70
2021/08/19 01:38:40;;;;;;;13.18;6.60;;;;;;;17.29;76.78;99453.75;5087455;27;20032;-70
2021/08/19 01:41:05;;;;;;;11.48;6.75;;;;;;;17.27;77.17;99447.69;5089212;27;20032;-70
2021/08/19 01:43:32;;;;;;;13.93;7.60;;;;;;;17.26;77.13;99440.69;5088826;27;20055;-70
2021/08/19 01:46:05;;;;;;;9.55;6.88;;;;;;;17.27;76.82;99437.88;5088449;27;20178;-70
2021/08/19 01:48:31;;;;;;;10.93;7.43;;;;;;;17.26;76.98;99446.00;5084652;27;20071;-70
2021/08/19 01:50:56;;;;;;;11.07;8.15;;;;;;;17.29;76.92;99445.75;5088608;27;20396;-70
2021/08/19 01:53:22;;;;;;;14.23;8.88;;;;;;;17.26;76.61;99444.19;5088469;27;20598;-70
2021/08/19 01:55:50;;;;;;;11.57;8.30;;;;;;;17.25;76.85;99442.47;5088702;27;20035;-71
2021/08/19 01:58:17;;;;;;;11.50;8.20;;;;;;;17.24;76.78;99446.13;5088126;27;20052;-70
2021/08/19 02:00:42;;;;;;;10.48;8.15;;;;;;;17.24;76.78;99443.47;5088701;27;20043;-70
2021/08/19 02:03:08;;;;;;;11.73;7.72;;;;;;;17.24;76.98;99443.47;5089324;27;20036;-70
2021/08/19 02:05:36;;;;;;;9.80;7.38;;;;;;;17.24;76.87;99446.13;5088686;27;20040;-70
2021/08/19 02:08:01;;;;;;;10.93;8.20;;;;;;;17.24;76.85;99446.13;5091083;27;20060;-70
2021/08/19 02:10:27;;;;;;;10.65;8.20;;;;;;;17.23;76.53;99443.56;5090591;27;20070;-70
2021/08/19 02:12:52;;;;;;;9.80;7.13;;;;;;;17.24;77.00;99439.94;5090496;27;20097;-70
2021/08/19 02:15:17;;;;;;;9.75;7.57;;;;;;;17.23;76.47;99447.09;5087298;27;20512;-70
2021/08/19 02:17:43;;;;;;;7.93;6.03;;;;;;;17.23;76.87;99443.56;5089645;27;20550;-71
2021/08/19 02:20:09;;;;;;;9.02;7.72;;;;;;;17.22;77.03;99437.41;5090446;27;20036;-70
2021/08/19 02:22:34;;;;;;;11.30;7.32;;;;;;;17.18;76.65;99441.31;5091785;27;20036;-70
2021/08/19 02:24:59;;;;;;;10.60;6.82;;;;;;;17.21;77.00;99441.06;5091167;27;20556;-70
2021/08/19 02:27:26;;;;;;;9.90;7.15;;;;;;;17.24;76.53;99431.97;5086976;27;20492;-70
2021/08/19 02:29:52;;;;;;;9.45;6.90;;;;;;;17.22;77.02;99432.06;5089253;27;20032;-70
2021/08/19 02:32:17;;;;;;;9.90;6.43;;;;;;;17.21;76.86;99435.72;5090808;27;20053;-70
2021/08/19 02:34:43;;;;;;;12.35;6.30;;;;;;;17.22;76.78;99431.25;5088996;27;20510;-69
2021/08/19 02:37:08;;;;;;;8.85;6.40;;;;;;;17.20;76.99;99435.84;5089547;27;20036;-69
2021/08/19 02:39:34;;;;;;;10.75;6.50;;;;;;;17.17;76.93;99432.44;5090206;27;20108;-70
2021/08/19 02:41:59;;;;;;;13.02;7.53;;;;;;;17.16;77.16;99440.59;5081209;27;20031;-70
2021/08/19 02:44:25;;;;;;;13.73;8.30;;;;;;;17.12;77.03;99426.66;5090325;27;20040;-70
2021/08/19 02:46:50;;;;;;;10.68;6.65;;;;;;;17.15;77.10;99425.56;5090429;27;20028;-70
2021/08/19 02:49:15;;;;;;;10.15;8.27;;;;;;;17.13;77.16;99425.72;5089961;27;20719;-69
2021/08/19 02:51:41;;;;;;;8.70;5.85;;;;;;;17.11;77.33;99421.47;5091881;27;20089;-70
2021/08/19 02:54:06;;;;;;;9.18;7.03;;;;;;;17.13;77.34;99424.84;5091223;27;20035;-70
2021/08/19 02:56:32;;;;;;;13.95;7.65;;;;;;;17.12;77.23;99426.66;5092253;27;20035;-70
2021/08/19 02:58:57;;;;;;;11.05;7.85;;;;;;;17.14;77.16;99429.22;5092153;27;20036;-69
2021/08/19 03:01:22;;;;;;;9.13;7.00;;;;;;;17.12;77.34;99416.00;5089266;27;20070;-69
2021/08/19 03:03:48;;;;;;;10.70;8.60;;;;;;;17.12;77.05;99420.50;5089677;27;20032;-70
2021/08/19 03:06:13;;;;;;;9.18;7.07;;;;;;;17.09;77.45;99424.25;5090555;27;20443;-69
2021/08/19 03:08:39;;;;;;;11.38;6.75;;;;;;;17.10;77.69;99422.44;5090516;27;20535;-71
2021/08/19 03:11:05;;;;;;;10.57;6.75;;;;;;;17.11;77.55;99416.16;5087409;27;20495;-70
2021/08/19 03:13:30;;;;;;;10.25;8.20;;;;;;;17.11;77.13;99422.31;5090214;27;20574;-70
2021/08/19 03:15:55;;;;;;;8.90;6.60;;;;;;;17.11;77.43;99424.97;5090442;27;20028;-70
2021/08/19 03:18:21;;;;;;;9.57;6.85;;;;;;;17.10;77.16;99419.78;5089666;27;20030;-70
2021/08/19 03:20:46;;;;;;;12.55;9.27;;;;;;;17.09;77.37;99420.75;5089171;27;20111;-70
2021/08/19 03:23:11;;;;;;;7.88;6.03;;;;;;;17.08;77.54;99425.25;5088742;28;20035;-69
2021/08/19 03:25:37;;;;;;;11.05;6.38;;;;;;;17.07;77.53;99420.03;5087373;27;20039;-70
2021/08/19 03:28:04;;;;;;;7.38;6.15;;;;;;;17.07;77.25;99420.03;5089120;27;20040;-70
2021/08/19 03:30:30;;;;;;;8.57;5.95;;;;;;;17.08;77.19;99419.03;5093916;27;20032;-70
2021/08/19 03:32:56;;;;;;;10.00;6.70;;;;;;;17.03;76.91;99413.25;5099710;27;20372;-70
2021/08/19 03:35:21;;;;;;;9.30;6.90;;;;;;;17.02;77.11;99414.22;5098955;27;20062;-71
2021/08/19 03:37:47;;;;;;;8.18;6.07;;;;;;;17.02;76.87;99412.41;5092791;27;20024;-71
2021/08/19 03:40:13;;;;;;;12.85;7.93;;;;;;;17.01;77.31;99413.41;5097930;27;20438;-70
2021/08/19 03:42:38;;;;;;;10.20;6.90;;;;;;;17.00;77.64;99419.66;5090764;27;20036;-70
2021/08/19 03:45:09;;;;;;;7.90;6.85;;;;;;;17.01;77.87;99409.88;5090597;27;20051;-70
2021/08/19 03:47:35;;;;;;;11.05;7.20;;;;;;;17.00;77.49;99411.69;5089981;27;20092;-70
2021/08/19 03:50:00;;;;;;;14.52;8.98;;;;;;;16.96;77.93;99412.94;5090300;27;20032;-70
2021/08/19 03:52:26;;;;;;;10.15;8.35;;;;;;;16.95;77.58;99405.88;5086912;27;20051;-70
2021/08/19 03:54:51;;;;;;;10.70;8.00;;;;;;;16.94;77.29;99410.38;5089999;27;20036;-70
2021/08/19 03:57:17;;;;;;;8.63;6.93;;;;;;;16.98;77.28;99416.28;5089280;27;20032;-70
2021/08/19 03:59:42;;;;;;;8.95;7.00;;;;;;;16.99;77.23;99410.00;5090201;27;20035;-70
2021/08/19 04:02:08;;;;;;;8.65;7.72;;;;;;;17.00;77.02;99405.53;5089696;27;20036;-70
2021/08/19 04:04:33;;;;;;;13.00;8.18;;;;;;;16.99;77.49;99410.00;5090212;27;20068;-70
2021/08/19 04:06:58;;;;;;;8.38;6.70;;;;;;;16.98;77.28;99415.44;5089298;27;20507;-69
2021/08/19 04:09:24;;;;;;;9.80;6.78;;;;;;;16.98;77.10;99412.78;5089568;27;20705;-71
2021/08/19 04:11:49;;;;;;;9.68;7.78;;;;;;;16.98;77.17;99421.63;5089418;27;20052;-70
2021/08/19 04:14:14;;;;;;;9.80;7.32;;;;;;;16.99;77.35;99422.47;5090167;27;20036;-70
2021/08/19 04:16:40;;;;;;;8.55;5.88;;;;;;;17.00;77.13;99416.16;5089772;27;20348;-70
2021/08/19 04:19:05;;;;;;;9.48;6.20;;;;;;;16.99;76.89;99419.81;5089976;27;20067;-68
2021/08/19 04:21:30;;;;;;;8.88;6.88;;;;;;;17.00;76.73;99416.16;5089625;27;20039;-70
2021/08/19 04:23:56;;;;;;;8.88;6.95;;;;;;;16.98;76.75;99426.94;5089769;27;20498;-71
2021/08/19 04:26:21;;;;;;;9.65;6.88;;;;;;;16.95;76.92;99420.03;5088687;27;20501;-70
2021/08/19 04:28:47;;;;;;;7.72;6.13;;;;;;;16.98;76.70;99420.78;5088663;27;20028;-70
2021/08/19 04:31:12;;;;;;;9.45;6.25;;;;;;;17.00;76.77;99421.50;5088293;28;20059;-70
2021/08/19 04:33:37;;;;;;;11.77;6.60;;;;;;;17.00;76.95;99426.81;5088096;27;20028;-70
2021/08/19 04:36:03;;;;;;;11.18;7.05;;;;;;;16.98;76.86;99423.44;5089579;27;20039;-71
2021/08/19 04:38:29;;;;;;;10.77;8.35;;;;;;;16.93;77.29;99426.47;5088813;27;20028;-71
2021/08/19 04:40:55;;;;;;;11.07;8.13;;;;;;;16.93;77.32;99431.78;5088979;27;20028;-70
2021/08/19 04:43:21;;;;;;;9.70;8.02;;;;;;;16.88;76.95;99424.22;5089464;27;20032;-70
2021/08/19 04:45:47;;;;;;;12.45;8.90;;;;;;;16.88;77.46;99426.88;5089295;27;20544;-70
2021/08/19 04:48:26;;;;;;;11.65;8.07;;;;;;;16.83;77.12;99429.03;5011275;28;20407;-70
2021/08/19 04:50:51;;;;;;;10.63;7.78;;;;;;;16.85;77.00;99428.91;4986744;28;20065;-70
2021/08/19 04:53:17;;;;;;;12.25;7.65;;;;;;;16.77;76.94;99434.84;5003480;28;20054;-70
2021/08/19 04:55:42;;;;;;;11.27;7.97;;;;;;;16.75;77.29;99431.44;5006797;28;20030;-70
2021/08/19 04:58:07;;;;;;;9.38;7.35;;;;;;;16.74;77.64;99437.75;5004373;28;20038;-70
2021/08/19 05:00:33;;;;;;;13.32;8.18;;;;;;;16.71;77.78;99435.31;5006042;28;20124;-71
2021/08/19 05:02:58;;;;;;;10.25;7.07;;;;;;;16.69;77.58;99437.28;5005696;28;20069;-71
2021/08/19 05:05:23;;;;;;;7.45;5.72;;;;;;;16.70;77.83;99431.81;5006065;28;20054;-70
2021/08/19 05:07:48;;;;;;;9.30;7.43;;;;;;;16.73;77.40;99430.72;5003882;28;20529;-71
2021/08/19 05:10:14;;;;;;;11.23;6.28;;;;;;;16.75;77.29;99437.59;5006412;28;20049;-70
2021/08/19 05:12:39;;;;;;;10.82;7.13;;;;;;;16.74;77.36;99429.75;5006115;28;20037;-69
2021/08/19 05:15:05;;;;;;;10.82;6.32;;;;;;;16.75;77.05;99432.28;5006060;28;20422;-69
2021/08/19 05:17:30;;;;;;;10.43;6.13;;;;;;;16.74;76.95;99427.09;5005455;28;20032;-70
2021/08/19 05:19:56;;;;;;;12.23;6.95;;;;;;;16.72;76.88;99437.88;5005898;28;20125;-70
2021/08/19 05:22:21;;;;;;;14.18;6.72;;;;;;;16.71;77.19;99435.31;5004537;28;20153;-70
2021/08/19 05:24:46;;;;;;;9.85;7.07;;;;;;;16.73;77.32;99441.38;5004792;28;20080;-70
2021/08/19 05:27:12;;;;;;;12.60;6.80;;;;;;;16.77;77.05;99444.66;5005026;28;20406;-70
2021/08/19 05:29:37;;;;;;;9.20;6.80;;;;;;;16.77;76.95;99449.97;5005698;28;20044;-69
2021/08/19 05:32:03;;;;;;;9.70;6.18;;;;;;;16.76;76.63;99449.13;5005640;28;20458;-70
2021/08/19 05:34:28;;;;;;;8.25;6.82;;;;;;;16.73;76.59;99457.34;5005483;28;20049;-71
2021/08/19 05:36:53;;;;;;;15.18;7.63;;;;;;;16.68;76.97;99446.22;5004570;28;20030;-70
2021/08/19 05:39:19;;;;;;;12.98;7.05;;;;;;;16.71;77.06;99459.28;5005267;28;20097;-70
2021/08/19 05:41:44;;;;;;;9.13;7.18;;;;;;;16.68;76.75;99456.84;5005511;28;20589;-70
2021/08/19 05:44:10;;;;;;;12.07;7.32;;;;;;;16.68;77.09;99452.38;5005342;28;20448;-71
2021/08/19 05:46:38;;;;;;;15.30;9.13;;;;;;;16.68;77.27;99446.22;5004509;28;20424;-69
2021/08/19 05:49:03;;;;;;;12.63;7.25;;;;;;;16.68;77.27;99449.72;5005042;28;20494;-70
2021/08/19 05:51:29;;;;;;;12.65;6.20;;;;;;;16.67;76.93;99448.03;5005235;28;20042;-71
2021/08/19 05:53:54;;;;;;;11.63;7.55;;;;;;;16.64;77.18;99453.59;5005206;28;20026;-71
2021/08/19 05:56:19;;;;;;;11.88;7.07;;;;;;;16.58;77.46;99462.06;5004697;28;20132;-70
2021/08/19 05:58:45;;;;;;;8.18;6.55;;;;;;;16.59;77.27;99455.78;4995529;28;20100;-71
2021/08/19 06:01:10;;;;;;;10.18;7.60;;;;;;;16.61;77.17;99459.16;4992830;28;20868;-70
2021/08/19 06:03:35;;;;;;;10.48;6.40;;;;;;;16.65;77.70;99457.94;4992411;28;20516;-69
2021/08/19 06:06:01;;;;;;;13.27;7.38;;;;;;;16.67;77.40;99455.19;4993314;28;20042;-70
2021/08/19 06:08:26;;;;;;;8.75;6.50;;;;;;;16.67;76.97;99458.69;4991759;28;20070;-71
2021/08/19 06:10:51;;;;;;;8.60;6.47;;;;;;;16.71;76.77;99460.13;4992782;28;20041;-69
2021/08/19 06:13:17;;;;;;;10.57;7.10;;;;;;;16.71;76.60;99473.44;4992777;28;20035;-71
2021/08/19 06:15:43;;;;;;;14.90;6.85;;;;;;;16.70;76.91;99466.41;4992845;28;20035;-70
2021/08/19 06:18:09;;;;;;;9.25;6.65;;;;;;;16.70;76.76;99470.91;4991602;28;20544;-70
2021/08/19 06:20:34;;;;;;;8.63;6.28;;;;;;;16.70;76.76;99468.25;4990645;28;21403;-70
2021/08/19 06:23:00;;;;;;;7.53;6.15;;;;;;;16.69;76.88;99470.06;4991830;28;20126;-70
2021/08/19 06:25:26;;;;;;;9.40;6.60;;;;;;;16.70;76.36;99465.56;4991881;28;20054;-70
2021/08/19 06:27:53;;;;;;;15.15;7.40;;;;;;;16.66;76.49;99474.75;4991053;28;20042;-71
2021/08/19 06:30:18;;;;;;;11.35;6.80;;;;;;;16.69;76.82;99469.22;4991584;28;20038;-71
2021/08/19 06:32:44;;;;;;;7.90;5.95;;;;;;;16.74;76.50;99478.53;4991012;28;20546;-71
2021/08/19 06:35:10;;;;;;;11.05;6.50;;;;;;;16.79;76.25;99474.69;4992185;28;20030;-71
2021/08/19 06:37:39;;;;;;;10.95;6.97;;;;;;;16.80;76.12;99477.22;4993108;28;20501;-71
2021/08/19 06:40:06;;;;;;;8.52;6.35;;;;;;;16.79;76.12;99469.38;4993675;28;20089;-72
2021/08/19 06:42:31;;;;;;;12.88;7.10;;;;;;;16.79;76.26;99469.38;4992733;28;20038;-70
2021/08/19 06:44:57;;;;;;;12.00;6.63;;;;;;;16.78;76.47;99476.47;4991634;28;20436;-69
2021/08/19 06:47:22;;;;;;;14.57;8.52;;;;;;;16.80;76.42;99468.38;4991709;28;20047;-70
2021/08/19 06:49:48;;;;;;;12.38;7.00;;;;;;;16.83;76.23;99474.28;4993951;28;20418;-70
2021/08/19 06:52:13;;;;;;;12.13;7.22;;;;;;;16.84;76.11;99470.69;4993804;28;20483;-69
2021/08/19 06:54:38;;;;;;;16.23;7.65;;;;;;;16.82;75.96;99474.44;4995211;28;20541;-71
2021/08/19 06:57:04;;;;;;;14.20;7.35;;;;;;;16.81;75.74;99476.25;4992769;28;20062;-69
2021/08/19 06:59:29;;;;;;;14.02;8.25;;;;;;;16.81;76.33;99473.59;4994671;28;20054;-70
2021/08/19 07:01:55;;;;;;;12.98;7.53;;;;;;;16.81;75.92;99483.38;4998383;28;20046;-72
2021/08/19 07:04:21;;;;;;;10.27;7.45;;;;;;;16.79;76.18;99472.88;4997840;28;20134;-70
2021/08/19 07:06:46;;;;;;;13.75;5.68;;;;;;;16.83;75.94;99476.94;4995878;28;20054;-70
2021/08/19 07:09:12;;;;;;;12.85;7.15;;;;;;;16.85;76.16;99484.84;4994405;28;20038;-71
2021/08/19 07:11:38;;;;;;;10.20;6.13;;;;;;;16.89;75.73;99479.13;4994603;28;20042;-70
2021/08/19 07:14:04;;;;;;;16.40;7.80;;;;;;;16.87;75.89;99481.06;4994010;28;20030;-71
2021/08/19 07:16:29;;;;;;;13.23;6.55;;;;;;;16.90;75.72;99485.31;4994157;28;20030;-70
2021/08/19 07:18:55;;;;;;;12.95;7.32;;;;;;;16.87;75.98;99489.06;4993164;28;20033;-70
2021/08/19 07:21:20;;;;;;;13.85;7.88;;;;;;;16.86;75.84;99487.38;4991695;28;20129;-72
2021/08/19 07:23:46;;;;;;;14.00;7.32;;;;;;;16.86;75.46;99490.03;4990288;28;20441;-73
2021/08/19 07:26:11;;;;;;;15.13;7.90;;;;;;;16.86;75.59;99489.16;4992019;28;20034;-70
2021/08/19 07:28:36;;;;;;;17.85;8.88;;;;;;;16.84;75.70;99491.13;4990702;28;20058;-69
2021/08/19 07:31:02;;;;;;;15.10;10.02;;;;;;;16.83;76.17;99492.09;4991334;28;20117;-71
2021/08/19 07:33:27;;;;;;;19.60;9.15;;;;;;;16.83;76.49;99487.59;4990787;28;20046;-70
2021/08/19 07:35:53;;;;;;;19.80;9.63;;;;;;;16.86;76.65;99494.50;4990855;28;20030;-65
2021/08/19 07:38:19;;;;;;;18.80;9.07;;;;;;;16.81;76.46;99489.56;4989822;28;20042;-67
2021/08/19 07:40:45;;;;;;;13.27;8.35;;;;;;;16.83;76.75;99492.94;4991135;28;20388;-67
2021/08/19 07:43:11;;;;;;;19.08;9.80;;;;;;;16.83;76.50;99490.25;4990372;28;20026;-66
2021/08/19 07:45:36;;;;;;;13.88;8.20;;;;;;;16.86;76.22;99498.03;4988821;28;20026;-66
2021/08/19 07:48:09;;;;;;;11.02;8.15;;;;;;;16.87;76.21;99493.53;4989302;28;20026;-68
2021/08/19 07:50:36;;;;;;;11.60;7.63;;;;;;;16.90;76.10;99486.16;4990109;28;20050;-66
2021/08/19 07:53:01;;;;;;;12.10;7.60;;;;;;;16.90;75.99;99493.28;4989824;28;20049;-65
2021/08/19 07:55:27;;;;;;;14.48;8.13;;;;;;;16.88;75.43;99496.09;4990412;28;20502;-67
2021/08/19 07:57:52;;;;;;;10.18;6.85;;;;;;;16.90;75.85;99496.78;4989725;28;20038;-67
2021/08/19 08:00:24;;;;;;;10.52;7.50;;;;;;;16.93;75.48;99493.03;4977810;28;22169;-65
2021/08/19 08:02:51;;;;;;;12.25;7.25;;;;;;;16.93;75.39;99493.91;4970554;28;20035;-66
2021/08/19 08:05:17;;;;;;;15.27;8.45;;;;;;;16.95;75.16;99497.28;4963587;28;20149;-67
2021/08/19 08:07:42;;;;;;;8.38;6.95;;;;;;;17.00;75.32;99496.91;4980387;28;20062;-65
2021/08/19 08:10:08;;;;;;;12.45;7.70;;;;;;;17.06;75.05;99488.44;4984089;28;20042;-65
2021/08/19 08:12:33;;;;;;;11.02;7.38;;;;;;;17.08;74.45;99489.16;4984480;28;20042;-66
2021/08/19 08:14:59;;;;;;;11.70;6.90;;;;;;;17.14;74.50;99493.13;4984397;28;20081;-66
2021/08/19 08:17:25;;;;;;;18.83;7.15;;;;;;;17.22;73.80;99504.00;4983073;28;20042;-66
2021/08/19 08:19:51;;;;;;;10.25;6.93;;;;;;;17.25;73.93;99495.75;4984145;28;20042;-66
2021/08/19 08:22:18;;;;;;;11.25;7.05;;;;;;;17.26;73.61;99499.28;4983745;28;20034;-66
2021/08/19 08:24:44;;;;;;;9.05;6.93;;;;;;;17.29;73.38;99499.88;4982629;28;20542;-66
2021/08/19 08:27:09;;;;;;;11.70;7.78;;;;;;;17.27;73.39;99504.47;4983020;28;20050;-66
2021/08/19 08:29:35;;;;;;;8.13;6.13;;;;;;;17.27;74.01;99501.81;4983634;28;20046;-67
2021/08/19 08:32:07;;;;;;;12.43;8.63;;;;;;;17.26;73.58;99504.63;4983396;28;20042;-67
2021/08/19 08:34:34;;;;;;;10.38;8.07;;;;;;;17.29;73.74;99507.88;4983453;28;20046;-66
2021/08/19 08:37:00;;;;;;;13.02;7.53;;;;;;;17.32;73.45;99499.63;4982571;28;20525;-66
2021/08/19 08:39:27;;;;;;;17.48;8.23;;;;;;;17.34;73.47;99507.50;4983814;28;20035;-66
2021/08/19 08:41:53;;;;;;;10.90;8.32;;;;;;;17.32;73.34;99512.94;4983675;28;20061;-67
2021/08/19 08:44:20;;;;;;;13.52;9.15;;;;;;;17.35;73.56;99509.16;4983308;28;20058;-67
2021/08/19 08:46:46;;;;;;;13.50;7.80;;;;;;;17.36;73.37;99506.41;4982844;28;20042;-66
2021/08/19 08:49:14;;;;;;;9.73;7.85;;;;;;;17.41;73.06;99507.84;4989812;28;20045;-68
2021/08/19 08:51:47;;;;;;;9.15;7.07;;;;;;;17.41;72.71;99510.50;5004825;28;20037;-66
2021/08/19 08:54:12;;;;;;;10.45;7.28;;;;;;;17.45;72.75;99511.94;5002640;28;20030;-67
2021/08/19 08:56:38;;;;;;;10.25;7.15;;;;;;;17.49;72.68;99508.06;4983648;28;20089;-67
2021/08/19 08:59:06;;;;;;;17.27;8.07;;;;;;;17.52;72.48;99506.00;4983044;28;20066;-67
2021/08/19 09:01:32;;;;;;;8.10;7.05;;;;;;;17.57;72.23;99505.59;4979941;28;20039;-67
2021/08/19 09:03:57;;;;;;;8.15;6.75;;;;;;;17.56;71.66;99517.25;4989162;28;20053;-67
2021/08/19 09:06:37;;;;;;;9.02;6.22;;;;;;;17.55;71.55;99519.06;4987224;28;20046;-66
2021/08/19 09:09:23;;;;;;;8.75;6.20;;;;;;;17.60;71.83;99519.53;4988899;28;20038;-65
2021/08/19 09:11:53;;;;;;;;;;;;;;;17.60;71.40;99524.84;4981759;28;20057;-66
2021/08/19 09:14:24;;;;;;;7.85;6.30;;;;;;;17.59;71.61;99530.31;4980375;28;19914;-67
2021/08/19 09:16:50;;;;;;;10.02;6.35;;;;;;;17.57;71.43;99525.13;4986349;28;20058;-66
2021/08/19 09:19:18;;;;;;;8.50;5.55;;;;;;;17.58;71.65;99526.81;4987598;28;20088;-67
2021/08/19 09:21:57;;;;;;;17.83;7.78;;;;;;;17.59;71.45;99530.31;4988201;28;20395;-67
2021/08/19 09:24:28;;;;;;;11.40;8.23;;;;;;;17.55;71.89;99528.88;4985722;28;20699;-67
2021/08/19 09:26:55;;;;;;;11.52;7.50;;;;;;;17.56;71.61;99527.91;4988854;28;20035;-66
2021/08/19 09:29:30;;;;;;;13.32;7.68;;;;;;;17.58;71.54;99524.13;4988969;28;20399;-67
2021/08/19 09:32:07;;;;;;;10.15;7.10;;;;;;;17.60;71.68;99527.53;4989192;28;20040;-67
2021/08/19 09:34:33;;;;;;;8.38;6.88;;;;;;;17.57;71.77;99529.59;4991358;28;20061;-67
2021/08/19 09:37:00;;;;;;;11.48;6.78;;;;;;;17.56;71.75;99531.41;4991680;28;20066;-67
2021/08/19 09:39:36;;;;;;;9.38;6.80;;;;;;;17.55;72.25;99537.72;4991100;28;20046;-66
2021/08/19 09:42:01;;;;;;;;;;;;;;;17.47;72.02;99537.47;4992456;28;20026;-67
2021/08/19 09:44:32;;;;;;;9.65;7.75;;;;;;;17.41;72.62;99535.34;4991791;28;20333;-68
2021/08/19 09:46:59;;;;;;;11.68;8.30;;;;;;;17.38;73.24;99533.78;4991506;28;20038;-66
2021/08/19 09:49:27;;;;;;;9.48;7.47;;;;;;;17.36;73.15;99543.69;4992112;28;20040;-66
2021/08/19 09:52:12;;;;;;;11.52;8.23;;;;;;;17.34;73.66;99534.13;4992207;28;20051;-66
2021/08/19 09:54:40;;;;;;;8.40;7.53;;;;;;;17.30;73.91;99536.22;4991564;28;20502;-66
2021/08/19 09:57:07;;;;;;;8.77;7.80;;;;;;;17.27;74.36;99533.78;4992003;28;20521;-66
2021/08/19 09:59:37;;;;;;;9.32;7.72;;;;;;;17.23;75.38;99532.34;4992246;28;20044;-67
2021/08/19 10:02:04;;;;;;;10.82;8.10;;;;;;;17.25;76.46;99537.53;4991726;28;20027;-66
2021/08/19 10:04:30;;;;;;;9.52;7.93;;;;;;;17.22;76.79;99535.13;4991000;28;20046;-66
2021/08/19 10:06:56;;;;;;;9.43;6.75;;;;;;;17.17;76.77;99530.19;4991743;28;20039;-66
2021/08/19 10:09:23;;;;;;;6.75;6.05;;;;;;;17.14;76.18;99533.94;4989171;28;20048;-66
2021/08/19 10:11:50;;;;;;;10.38;6.60;;;;;;;17.19;76.33;99540.72;4992099;28;20034;-66
2021/08/19 10:14:18;;;;;;;8.07;5.18;;;;;;;17.21;75.78;99539.63;5009717;28;20397;-66
2021/08/19 10:16:44;;;;;;;8.60;5.82;;;;;;;17.23;75.34;99534.16;5010920;28;20057;-68
2021/08/19 10:19:19;;;;;;;7.93;5.10;;;;;;;17.30;74.52;99532.69;5011616;28;20478;-66
2021/08/19 10:21:50;;;;;;;8.93;5.00;;;;;;;17.39;74.24;99530.13;5012299;28;20038;-67
2021/08/19 10:24:17;;;;;;;6.03;4.47;;;;;;;17.49;73.58;99532.88;5011721;28;20445;-66
2021/08/19 10:26:43;;;;;;;7.25;4.75;;;;;;;17.60;73.72;99526.69;5010648;28;20038;-66
2021/08/19 10:29:08;;;;;;;5.38;3.67;;;;;;;17.74;72.57;99526.34;5011318;28;20461;-65
2021/08/19 10:31:36;;;;;;;6.65;4.15;;;;;;;17.88;71.73;99527.09;5009083;28;20053;-66
2021/08/19 10:34:03;;;;;;;8.77;4.13;;;;;;;17.96;71.17;99528.13;5010773;28;20034;-67
2021/08/19 10:36:28;;;;;;;5.88;4.47;;;;;;;18.19;70.36;99526.19;5010779;28;20509;-66
2021/08/19 10:39:16;;;;;;;7.28;3.78;;;;;;;18.29;69.71;99522.75;5010998;28;20069;-66
2021/08/19 10:41:41;;;;;;;9.10;4.05;;;;;;;18.27;69.32;99519.34;5011010;28;20026;-65
2021/08/19 10:44:08;;;;;;;9.80;4.47;;;;;;;18.20;68.99;99524.34;5006564;28;20050;-73
2021/08/19 10:46:38;;;;;;;7.70;4.10;;;;;;;18.13;69.49;99520.50;4990454;28;20041;-70
2021/08/19 10:49:04;;;;;;;8.05;3.88;;;;;;;18.12;69.62;99524.19;5008942;28;20048;-72
2021/08/19 10:51:30;;;;;;;5.28;3.90;;;;;;;18.13;69.71;99526.69;5005676;28;20038;-70
2021/08/19 10:53:55;;;;;;;10.48;4.45;;;;;;;18.14;69.16;99525.72;5006012;28;20068;-68
2021/08/19 10:56:53;;;;;;;11.38;3.85;;;;;;;18.15;69.12;99521.22;5005120;28;20112;-71
2021/08/19 10:59:32;;;;;;;4.70;3.38;;;;;;;18.07;68.19;99521.91;5002054;28;20125;-70
2021/08/19 11:01:59;;;;;;;5.22;3.15;;;;;;;18.05;68.29;99523.00;4988051;28;20062;-69
2021/08/19 11:04:42;;;;;;;4.05;2.45;;;;;;;18.04;68.11;99530.16;5006300;28;20034;-70
2021/08/19 11:07:09;;;;;;;7.28;3.20;;;;;;;18.05;68.08;99525.66;5009815;28;20045;-69
2021/08/19 11:09:35;;;;;;;3.17;2.83;;;;;;;18.13;67.63;99520.50;5009869;28;20061;-70
2021/08/19 11:12:07;;;;;;;6.38;3.08;;;;;;;18.28;67.04;99513.88;5008678;28;20494;-70
2021/08/19 11:14:34;;;;;;;6.28;2.65;;;;;;;18.39;66.48;99518.31;5009095;28;20041;-69
2021/08/19 11:17:01;;;;;;;3.58;2.78;;;;;;;18.40;66.59;99519.97;5007859;28;20040;-69
2021/08/19 11:19:29;;;;;;;4.30;2.35;;;;;;;18.41;66.57;99519.84;5010134;28;20099;-69
2021/08/19 11:22:01;;;;;;;9.20;2.97;;;;;;;18.35;66.76;99523.03;5009887;28;20514;-69
2021/08/19 11:24:28;;;;;;;4.78;2.67;;;;;;;18.37;66.84;99525.59;5011146;28;20131;-70
2021/08/19 11:27:02;;;;;;;6.95;2.80;;;;;;;18.38;67.19;99521.94;5010367;28;20490;-71